Time;durP1;ratioP1;P1;durP2;ratioP2;P2;SDS_P1;SDS_P2;PMS_P1;PMS_P2;Temp;Humidity;BMP_temperature;BMP_pressure;BME280_temperature;BME280_humidity;BME280_pressure;Samples;Min_cycle;Max_cycle;Signal;HPM_P1;HPM_P2
2023/01/06 00:00:42;;;;;;;16.85;7.57;;;;;;;-144.31;100.00;58022.63;5036244;28;20041;-60
2023/01/06 00:03:08;;;;;;;17.85;7.78;;;;;;;-144.31;100.00;58022.63;5027646;28;20042;-60
2023/01/06 00:05:34;;;;;;;16.20;7.60;;;;;;;-144.31;100.00;58022.63;5034617;28;20398;-60
2023/01/06 00:07:59;;;;;;;16.67;7.65;;;;;;;-144.31;100.00;58022.63;5027771;28;20388;-59
2023/01/06 00:10:25;;;;;;;15.63;7.82;;;;;;;-144.31;100.00;58022.63;5029926;28;20501;-60
2023/01/06 00:12:51;;;;;;;21.73;8.07;;;;;;;-144.31;100.00;58022.63;5041005;28;20538;-59
2023/01/06 00:15:17;;;;;;;15.95;7.35;;;;;;;-144.31;100.00;58022.63;5026462;28;20033;-60
2023/01/06 00:17:43;;;;;;;15.40;7.32;;;;;;;-144.31;100.00;58022.63;5032240;28;20509;-59
2023/01/06 00:20:10;;;;;;;15.70;7.60;;;;;;;-144.31;100.00;58022.63;5028119;28;20541;-59
2023/01/06 00:22:38;;;;;;;15.38;6.85;;;;;;;-144.31;100.00;58022.63;5040996;28;20048;-59
2023/01/06 00:25:04;;;;;;;12.48;6.55;;;;;;;-144.31;100.00;58022.63;5034492;28;20041;-59
2023/01/06 00:27:30;;;;;;;12.65;6.60;;;;;;;-144.31;100.00;58022.63;5030246;28;20052;-64
2023/01/06 00:29:56;;;;;;;16.50;7.20;;;;;;;-144.31;100.00;58022.63;5031152;28;20091;-59
2023/01/06 00:32:21;;;;;;;12.65;6.13;;;;;;;-144.31;100.00;58022.63;5034119;28;20394;-60
2023/01/06 00:34:47;;;;;;;13.30;6.25;;;;;;;-144.31;100.00;58022.63;5028733;28;20084;-60
2023/01/06 00:37:12;;;;;;;12.77;6.60;;;;;;;-144.31;100.00;58022.63;5036037;28;20045;-59
2023/01/06 00:39:38;;;;;;;11.38;6.20;;;;;;;-144.31;100.00;58022.63;5022646;28;20062;-59
2023/01/06 00:42:04;;;;;;;14.90;6.10;;;;;;;-144.31;100.00;58022.63;5044898;28;20252;-59
2023/01/06 00:44:34;;;;;;;10.70;5.50;;;;;;;-144.31;100.00;58022.63;5031595;28;20041;-63
2023/01/06 00:47:00;;;;;;;10.23;5.68;;;;;;;-144.31;100.00;58022.63;5028470;28;20036;-60
2023/01/06 00:49:26;;;;;;;13.15;5.78;;;;;;;-144.31;100.00;58022.63;5033716;28;20045;-60
2023/01/06 00:51:51;;;;;;;18.48;7.07;;;;;;;-144.31;100.00;58022.63;5029192;28;20025;-60
2023/01/06 00:54:17;;;;;;;16.63;7.30;;;;;;;-144.31;100.00;58022.63;5038743;28;20518;-59
2023/01/06 00:56:45;;;;;;;13.25;5.82;;;;;;;-144.31;100.00;58022.63;5025966;28;20025;-60
2023/01/06 00:59:13;;;;;;;12.50;5.50;;;;;;;-144.31;100.00;58022.63;5027037;28;20373;-59
2023/01/06 01:01:40;;;;;;;10.90;6.00;;;;;;;-144.31;100.00;58022.63;5031120;28;20560;-59
2023/01/06 01:04:06;;;;;;;12.27;6.35;;;;;;;-144.31;100.00;58022.63;5027492;28;20036;-59
2023/01/06 01:06:32;;;;;;;10.68;5.35;;;;;;;-144.31;100.00;58022.63;5030061;28;20041;-59
2023/01/06 01:08:59;;;;;;;9.02;5.57;;;;;;;-144.31;100.00;58022.63;5025313;28;20032;-59
2023/01/06 01:14:11;;;;;;;9.15;6.00;;;;;;;-144.31;100.00;58022.63;5030544;28;20033;-59
2023/01/06 01:16:37;;;;;;;10.80;5.07;;;;;;;-144.31;100.00;58022.63;5030160;28;20440;-60
2023/01/06 01:19:02;;;;;;;8.45;5.00;;;;;;;-144.31;100.00;58022.63;5027872;28;20541;-59
2023/01/06 01:21:28;;;;;;;9.27;5.15;;;;;;;-144.31;100.00;58022.63;5031678;28;20033;-59
2023/01/06 01:23:53;;;;;;;9.65;5.28;;;;;;;-144.31;100.00;58022.63;5030108;28;20064;-59
2023/01/06 01:26:19;;;;;;;7.97;5.30;;;;;;;-144.31;100.00;58022.63;5032374;28;20589;-60
2023/01/06 01:28:44;;;;;;;13.05;5.28;;;;;;;-144.31;100.00;58022.63;5039396;28;20033;-59
2023/01/06 01:31:12;;;;;;;10.45;5.05;;;;;;;-144.31;100.00;58022.63;5026870;28;20033;-59
2023/01/06 01:33:38;;;;;;;11.75;4.50;;;;;;;-144.31;100.00;58022.63;5033360;28;20048;-60
2023/01/06 01:36:13;;;;;;;14.25;4.55;;;;;;;-144.31;100.00;58022.63;5026137;28;20067;-59
2023/01/06 01:38:38;;;;;;;11.02;6.47;;;;;;;-144.31;100.00;58022.63;5033169;28;20041;-60
2023/01/06 01:41:05;;;;;;;9.40;5.55;;;;;;;-144.31;100.00;58022.63;5032848;28;20043;-59
2023/01/06 01:43:42;;;;;;;9.85;5.05;;;;;;;-144.31;100.00;58022.63;5029740;28;20115;-59
2023/01/06 01:46:08;;;;;;;10.55;5.28;;;;;;;-144.31;100.00;58022.63;5032971;28;20128;-60
2023/01/06 01:48:34;;;;;;;11.10;5.10;;;;;;;-144.31;100.00;58022.63;5036571;28;20093;-60
2023/01/06 01:51:03;;;;;;;9.13;5.30;;;;;;;-144.31;100.00;58022.63;5041254;28;20045;-58
2023/01/06 01:53:37;;;;;;;8.10;4.95;;;;;;;-144.31;100.00;58022.63;5023489;28;20025;-60
2023/01/06 01:56:07;;;;;;;8.45;5.10;;;;;;;-144.31;100.00;58022.63;5031423;28;20029;-59
2023/01/06 01:58:37;;;;;;;6.93;4.35;;;;;;;-144.31;100.00;58022.63;5043214;28;20060;-59
2023/01/06 02:01:04;;;;;;;9.82;5.63;;;;;;;-144.31;100.00;58022.63;5036741;28;20037;-59
2023/01/06 02:03:30;;;;;;;10.63;4.40;;;;;;;-144.31;100.00;58022.63;5036074;28;20065;-60
2023/01/06 02:06:00;;;;;;;9.45;4.60;;;;;;;-144.31;100.00;58022.63;5032240;28;20589;-60
2023/01/06 02:08:34;;;;;;;7.35;4.80;;;;;;;-144.31;100.00;58022.63;5030124;28;20396;-59
2023/01/06 02:11:00;;;;;;;9.25;5.00;;;;;;;-144.31;100.00;58022.63;5045318;28;20052;-60
2023/01/06 02:13:26;;;;;;;11.27;6.00;;;;;;;-144.31;100.00;58022.63;5037541;28;20033;-60
2023/01/06 02:16:03;;;;;;;8.07;5.13;;;;;;;-144.31;100.00;58022.63;5031683;28;20056;-60
2023/01/06 02:18:34;;;;;;;;;;;;;;;-144.31;100.00;58022.63;5034181;28;20045;-60
2023/01/06 02:21:22;;;;;;;11.60;5.47;;;;;;;-144.31;100.00;58022.63;5009351;28;20357;-60
2023/01/06 02:24:19;;;;;;;10.00;5.57;;;;;;;-144.31;100.00;58022.63;5030196;28;20159;-59
2023/01/06 02:27:07;;;;;;;11.35;5.63;;;;;;;-144.31;100.00;58022.63;5030734;28;20050;-60
2023/01/06 02:29:32;;;;;;;8.40;5.15;;;;;;;-144.31;100.00;58022.63;5030879;28;20037;-60
2023/01/06 02:32:06;;;;;;;10.35;4.72;;;;;;;-144.31;100.00;58022.63;5001365;28;20401;-59
2023/01/06 02:34:32;;;;;;;9.65;5.05;;;;;;;-144.31;100.00;58022.63;5032047;28;20033;-60
2023/01/06 02:37:20;;;;;;;15.80;5.65;;;;;;;-144.31;100.00;58022.63;5028965;28;20043;-59
2023/01/06 02:40:17;;;;;;;12.25;5.22;;;;;;;-144.31;100.00;58022.63;5030173;28;20094;-59
2023/01/06 02:43:08;;;;;;;9.27;4.68;;;;;;;-144.31;100.00;58022.63;5019384;28;20041;-60
2023/01/06 02:45:43;;;;;;;11.50;5.00;;;;;;;-144.31;100.00;58022.63;5026983;28;20494;-59
2023/01/06 02:48:20;;;;;;;11.40;5.28;;;;;;;-144.31;100.00;58022.63;5026462;28;20116;-60
2023/01/06 02:51:02;;;;;;;11.57;5.32;;;;;;;-144.31;100.00;58022.63;5028614;28;20052;-59
2023/01/06 02:53:47;;;;;;;11.60;5.22;;;;;;;-144.31;100.00;58022.63;5032271;28;20045;-59
2023/01/06 02:56:13;;;;;;;9.40;5.15;;;;;;;-144.31;100.00;58022.63;5035747;28;20118;-59
2023/01/06 02:58:56;;;;;;;9.70;4.75;;;;;;;-144.31;100.00;58022.63;5042236;28;20050;-59
2023/01/06 03:01:27;;;;;;;7.38;4.57;;;;;;;-144.31;100.00;58022.63;5029628;28;20494;-59
2023/01/06 03:03:57;;;;;;;7.85;4.40;;;;;;;-144.31;100.00;58022.63;5033441;28;20429;-59
2023/01/06 03:06:26;;;;;;;10.57;5.47;;;;;;;-144.31;100.00;58022.63;5044885;28;20083;-58
2023/01/06 03:08:55;;;;;;;10.63;5.40;;;;;;;-144.31;100.00;58022.63;5022392;28;20087;-60
2023/01/06 03:11:26;;;;;;;9.77;5.22;;;;;;;-144.31;100.00;58022.63;5039685;28;20064;-59
2023/01/06 03:14:18;;;;;;;10.35;5.20;;;;;;;-144.31;100.00;58022.63;5034008;28;20086;-60
2023/01/06 03:16:43;;;;;;;8.15;4.68;;;;;;;-144.31;100.00;58022.63;5026872;28;20075;-60
2023/01/06 03:19:09;;;;;;;7.32;4.53;;;;;;;-144.31;100.00;58022.63;5034100;28;20116;-60
2023/01/06 03:21:39;;;;;;;13.48;6.20;;;;;;;-144.31;100.00;58022.63;5026777;28;20513;-60
2023/01/06 03:24:07;;;;;;;9.07;5.20;;;;;;;-144.31;100.00;58022.63;5021420;28;20485;-59
2023/01/06 03:26:34;;;;;;;11.40;7.00;;;;;;;-144.31;100.00;58022.63;5033661;28;20130;-60
2023/01/06 03:29:04;;;;;;;9.35;5.50;;;;;;;-144.31;100.00;58022.63;5030908;28;20072;-59
2023/01/06 03:31:43;;;;;;;7.72;4.75;;;;;;;-144.31;100.00;58022.63;5024575;28;20493;-60
2023/01/06 03:34:28;;;;;;;10.02;4.65;;;;;;;-144.31;100.00;58022.63;5034473;28;20045;-60
2023/01/06 03:37:19;;;;;;;8.55;4.68;;;;;;;-144.31;100.00;58022.63;5033998;28;20040;-59
2023/01/06 03:40:11;;;;;;;13.80;5.28;;;;;;;-144.31;100.00;58022.63;5032469;28;20041;-58
2023/01/06 03:45:58;;;;;;;9.57;5.72;;;;;;;-144.31;100.00;58022.63;5033439;28;20486;-60
2023/01/06 03:48:48;;;;;;;8.13;5.30;;;;;;;-144.31;100.00;58022.63;5036295;28;20466;-60
2023/01/06 03:51:26;;;;;;;9.95;4.93;;;;;;;-144.31;100.00;58022.63;5049110;28;20033;-59
2023/01/06 03:54:06;;;;;;;10.65;5.28;;;;;;;-144.31;100.00;58022.63;5018374;28;20034;-61
2023/01/06 03:56:41;;;;;;;8.02;4.57;;;;;;;-144.31;100.00;58022.63;5029221;28;20466;-60
2023/01/06 03:59:13;;;;;;;7.05;4.57;;;;;;;-144.31;100.00;58022.63;5025137;28;20152;-62
2023/01/06 04:01:43;;;;;;;10.93;5.40;;;;;;;-144.31;100.00;58022.63;5025725;28;20051;-60
2023/01/06 04:04:09;;;;;;;7.82;5.00;;;;;;;-144.31;100.00;58022.63;5032983;28;20060;-60
2023/01/06 04:06:35;;;;;;;10.32;5.65;;;;;;;-144.31;100.00;58022.63;5033512;28;20505;-59
2023/01/06 04:09:02;;;;;;;8.52;5.95;;;;;;;-144.31;100.00;58022.63;5036690;28;20025;-60
2023/01/06 04:14:13;;;;;;;11.57;6.63;;;;;;;-144.31;100.00;58022.63;5033863;28;20069;-59
2023/01/06 04:16:39;;;;;;;14.77;6.65;;;;;;;-144.31;100.00;58022.63;5039919;28;20106;-61
2023/01/06 04:19:06;;;;;;;8.68;5.55;;;;;;;-144.31;100.00;58022.63;5041906;28;20037;-60
2023/01/06 04:21:31;;;;;;;9.48;5.28;;;;;;;-144.31;100.00;58022.63;5029285;28;20409;-60
2023/01/06 04:23:57;;;;;;;10.38;5.07;;;;;;;-144.31;100.00;58022.63;5040898;28;20671;-59
2023/01/06 04:26:22;;;;;;;8.95;4.97;;;;;;;-144.31;100.00;58022.63;5031202;28;20450;-59
2023/01/06 04:28:49;;;;;;;7.05;4.53;;;;;;;-144.31;100.00;58022.63;5029988;28;20144;-59
2023/01/06 04:31:14;;;;;;;6.72;4.15;;;;;;;-144.31;100.00;58022.63;5034211;28;20116;-59
2023/01/06 04:33:40;;;;;;;8.18;5.03;;;;;;;-144.31;100.00;58022.63;5037625;28;20517;-58
2023/01/06 04:36:08;;;;;;;13.80;5.18;;;;;;;-144.31;100.00;58022.63;5034042;28;20049;-59
2023/01/06 04:38:35;;;;;;;14.25;5.82;;;;;;;-144.31;100.00;58022.63;5027784;28;20045;-59
2023/01/06 04:41:00;;;;;;;7.32;4.97;;;;;;;-144.31;100.00;58022.63;5035180;28;20107;-59
2023/01/06 04:43:25;;;;;;;9.35;5.45;;;;;;;-144.31;100.00;58022.63;5041197;28;20036;-59
2023/01/06 04:45:51;;;;;;;9.70;6.25;;;;;;;-144.31;100.00;58022.63;5026936;28;20615;-60
2023/01/06 04:48:16;;;;;;;8.80;5.68;;;;;;;-144.31;100.00;58022.63;5031474;28;20419;-59
2023/01/06 04:50:42;;;;;;;9.60;5.40;;;;;;;-144.31;100.00;58022.63;5037127;28;20040;-60
2023/01/06 04:53:09;;;;;;;8.30;5.65;;;;;;;-144.31;100.00;58022.63;5037396;28;20460;-60
2023/01/06 04:55:39;;;;;;;8.48;5.63;;;;;;;-144.31;100.00;58022.63;5040851;28;20037;-61
2023/01/06 04:58:04;;;;;;;8.48;5.88;;;;;;;-144.31;100.00;58022.63;5039516;28;20040;-60
2023/01/06 05:00:30;;;;;;;12.32;6.20;;;;;;;-144.31;100.00;58022.63;5034246;28;20039;-59
2023/01/06 05:02:55;;;;;;;8.88;5.90;;;;;;;-144.31;100.00;58022.63;5027605;28;20044;-59
2023/01/06 05:05:20;;;;;;;10.43;6.30;;;;;;;-144.31;100.00;58022.63;5026538;28;20513;-59
2023/01/06 05:07:46;;;;;;;8.50;6.15;;;;;;;-144.31;100.00;58022.63;5029328;28;20103;-59
2023/01/06 05:10:11;;;;;;;12.00;6.22;;;;;;;-144.31;100.00;58022.63;5024332;28;20044;-59
2023/01/06 05:12:37;;;;;;;13.35;7.22;;;;;;;-144.31;100.00;58022.63;5039588;28;20083;-58
2023/01/06 05:15:02;;;;;;;10.50;6.22;;;;;;;-144.31;100.00;58022.63;5038240;28;20136;-59
2023/01/06 05:17:28;;;;;;;10.35;6.15;;;;;;;-144.31;100.00;58022.63;5037770;28;20082;-59
2023/01/06 05:19:53;;;;;;;8.15;6.05;;;;;;;-144.31;100.00;58022.63;5042513;28;20037;-59
2023/01/06 05:22:19;;;;;;;9.57;6.22;;;;;;;-144.31;100.00;58022.63;5031220;28;20524;-59
2023/01/06 05:24:45;;;;;;;11.00;6.75;;;;;;;-144.31;100.00;58022.63;5031440;28;20041;-59
2023/01/06 05:27:10;;;;;;;11.13;6.68;;;;;;;-144.31;100.00;58022.63;5030383;28;20116;-59
2023/01/06 05:29:36;;;;;;;12.18;7.10;;;;;;;-144.31;100.00;58022.63;5024163;28;20151;-60
2023/01/06 05:32:02;;;;;;;10.00;6.68;;;;;;;-144.31;100.00;58022.63;5031030;28;20543;-59
2023/01/06 05:34:27;;;;;;;12.52;7.22;;;;;;;-144.31;100.00;58022.63;5025495;28;20477;-59
2023/01/06 05:36:53;;;;;;;9.85;6.90;;;;;;;-144.31;100.00;58022.63;5033522;28;20099;-58
2023/01/06 05:39:18;;;;;;;10.45;6.97;;;;;;;-144.31;100.00;58022.63;5024461;28;20156;-59
2023/01/06 05:41:43;;;;;;;9.25;6.32;;;;;;;-144.31;100.00;58022.63;5022275;28;20494;-59
2023/01/06 05:44:12;;;;;;;8.80;5.90;;;;;;;-144.31;100.00;58022.63;5038095;28;20065;-59
2023/01/06 05:46:37;;;;;;;9.60;6.65;;;;;;;-144.31;100.00;58022.63;5024934;28;20037;-59
2023/01/06 05:49:02;;;;;;;12.30;7.70;;;;;;;-144.31;100.00;58022.63;5032053;28;20585;-59
2023/01/06 05:51:28;;;;;;;13.20;8.60;;;;;;;-144.31;100.00;58022.63;5027607;28;20035;-59
2023/01/06 05:53:54;;;;;;;13.68;7.45;;;;;;;-144.31;100.00;58022.63;5027919;28;20175;-59
2023/01/06 05:56:22;;;;;;;14.05;7.25;;;;;;;-144.31;100.00;58022.63;5031991;28;20131;-59
2023/01/06 05:58:51;;;;;;;13.23;8.27;;;;;;;-144.31;100.00;58022.63;5029458;28;20486;-60
2023/01/06 06:01:18;;;;;;;13.65;6.63;;;;;;;-144.31;100.00;58022.63;5036035;28;20144;-59
2023/01/06 06:03:43;;;;;;;8.15;5.18;;;;;;;-144.31;100.00;58022.63;5034558;28;20037;-59
2023/01/06 06:06:09;;;;;;;10.95;5.25;;;;;;;-144.31;100.00;58022.63;5028833;28;20040;-61
2023/01/06 06:08:34;;;;;;;8.68;5.38;;;;;;;-144.31;100.00;58022.63;5033466;28;20106;-59
2023/01/06 06:11:10;;;;;;;8.02;5.63;;;;;;;-144.31;100.00;58022.63;5022578;28;20066;-60
2023/01/06 06:13:36;;;;;;;10.18;5.65;;;;;;;-144.31;100.00;58022.63;5032802;28;20079;-61
2023/01/06 06:16:13;;;;;;;9.82;5.93;;;;;;;-144.31;100.00;58022.63;5033425;28;20150;-61
2023/01/06 06:18:42;;;;;;;8.48;5.60;;;;;;;-144.31;100.00;58022.63;5026572;28;20077;-61
2023/01/06 06:21:13;;;;;;;8.23;5.30;;;;;;;-144.31;100.00;58022.63;5034029;28;20091;-58
2023/01/06 06:23:39;;;;;;;7.40;5.70;;;;;;;-144.31;100.00;58022.63;5025928;28;20037;-59
2023/01/06 06:26:05;;;;;;;9.45;5.90;;;;;;;-144.31;100.00;58022.63;5024656;28;20036;-62
2023/01/06 06:28:35;;;;;;;10.27;5.05;;;;;;;-144.31;100.00;58022.63;5035817;28;20037;-58
2023/01/06 06:31:25;;;;;;;8.20;5.10;;;;;;;-144.31;100.00;58022.63;5037139;28;20045;-59
2023/01/06 06:33:55;;;;;;;8.93;5.95;;;;;;;-144.31;100.00;58022.63;5031587;28;20079;-59
2023/01/06 06:36:21;;;;;;;8.20;5.65;;;;;;;-144.31;100.00;58022.63;5036466;28;20047;-59
2023/01/06 06:38:49;;;;;;;11.57;5.97;;;;;;;-144.31;100.00;58022.63;5029525;28;20029;-60
2023/01/06 06:41:14;;;;;;;9.30;5.55;;;;;;;-144.31;100.00;58022.63;5033495;28;20045;-61
2023/01/06 06:43:40;;;;;;;7.40;5.32;;;;;;;-144.31;100.00;58022.63;5032111;28;20448;-59
2023/01/06 06:46:07;;;;;;;9.02;5.80;;;;;;;-144.31;100.00;58022.63;5032185;28;20038;-58
2023/01/06 06:48:32;;;;;;;9.07;4.97;;;;;;;-144.31;100.00;58022.63;5037877;28;20361;-59
2023/01/06 06:51:03;;;;;;;8.20;5.05;;;;;;;-144.31;100.00;58022.63;5027901;28;20791;-59
2023/01/06 06:53:29;;;;;;;8.88;5.40;;;;;;;-144.31;100.00;58022.63;5034451;28;20060;-59
2023/01/06 06:55:55;;;;;;;10.07;5.90;;;;;;;-144.31;100.00;58022.63;5025999;28;20041;-58
2023/01/06 06:58:21;;;;;;;8.52;5.35;;;;;;;-144.31;100.00;58022.63;5021582;28;20555;-59
2023/01/06 07:00:47;;;;;;;11.60;5.70;;;;;;;-144.31;100.00;58022.63;5046403;28;20132;-59
2023/01/06 07:03:12;;;;;;;11.65;5.15;;;;;;;-144.31;100.00;58022.63;5033927;28;20107;-59
2023/01/06 07:05:38;;;;;;;12.32;6.47;;;;;;;-144.31;100.00;58022.63;5036946;28;20037;-59
2023/01/06 07:08:04;;;;;;;13.27;6.28;;;;;;;-144.31;100.00;58022.63;5030198;28;20029;-58
2023/01/06 07:10:29;;;;;;;13.00;5.82;;;;;;;-144.31;100.00;58022.63;5029824;28;20032;-59
2023/01/06 07:12:54;;;;;;;10.48;5.78;;;;;;;-144.31;100.00;58022.63;5035185;28;20049;-59
2023/01/06 07:15:20;;;;;;;10.48;6.18;;;;;;;-144.31;100.00;58022.63;5026356;28;20168;-59
2023/01/06 07:17:45;;;;;;;11.55;6.10;;;;;;;-144.31;100.00;58022.63;5046179;28;20044;-60
2023/01/06 07:20:11;;;;;;;14.02;6.80;;;;;;;-144.31;100.00;58022.63;5038320;28;20033;-59
2023/01/06 07:22:39;;;;;;;11.27;5.88;;;;;;;-144.31;100.00;58022.63;5037427;28;20036;-59
2023/01/06 07:25:06;;;;;;;10.73;6.55;;;;;;;-144.31;100.00;58022.63;5033336;28;20409;-59
2023/01/06 07:27:32;;;;;;;10.15;5.88;;;;;;;-144.31;100.00;58022.63;5028311;28;20127;-58
2023/01/06 07:29:58;;;;;;;12.90;6.25;;;;;;;-144.31;100.00;58022.63;5030440;28;20110;-59
2023/01/06 07:32:23;;;;;;;10.48;6.30;;;;;;;-144.31;100.00;58022.63;5036603;28;20044;-59
2023/01/06 07:34:49;;;;;;;13.00;6.13;;;;;;;-144.31;100.00;58022.63;5035602;28;20040;-59
2023/01/06 07:37:14;;;;;;;13.43;7.35;;;;;;;-144.31;100.00;58022.63;5047967;28;20443;-59
2023/01/06 07:39:40;;;;;;;11.82;6.72;;;;;;;-144.31;100.00;58022.63;5040646;28;20050;-59
2023/01/06 07:42:08;;;;;;;12.60;6.72;;;;;;;-144.31;100.00;58022.63;5039486;28;20425;-59
2023/01/06 07:44:33;;;;;;;11.20;6.57;;;;;;;-144.31;100.00;58022.63;5044688;28;20036;-59
2023/01/06 07:46:58;;;;;;;10.93;7.47;;;;;;;-144.31;100.00;58022.63;5031111;28;20532;-59
2023/01/06 07:49:24;;;;;;;13.20;7.93;;;;;;;-144.31;100.00;58022.63;5036342;28;20041;-59
2023/01/06 07:51:49;;;;;;;10.23;7.43;;;;;;;-144.31;100.00;58022.63;5035922;28;20033;-58
2023/01/06 07:54:16;;;;;;;10.57;6.50;;;;;;;-144.31;100.00;58022.63;5042426;28;20029;-59
2023/01/06 07:56:42;;;;;;;11.43;7.33;;;;;;;-144.31;100.00;58022.63;5048934;28;20052;-59
2023/01/06 07:59:10;;;;;;;13.52;7.07;;;;;;;-144.31;100.00;58022.63;5030006;28;20033;-59
2023/01/06 08:01:37;;;;;;;9.15;6.80;;;;;;;-144.31;100.00;58022.63;5036598;28;20573;-58
2023/01/06 08:04:02;;;;;;;9.27;6.40;;;;;;;-144.31;100.00;58022.63;5029846;28;20136;-59
2023/01/06 08:06:28;;;;;;;10.95;6.68;;;;;;;-144.31;100.00;58022.63;5030320;28;20103;-59
2023/01/06 08:08:53;;;;;;;9.85;6.30;;;;;;;-144.31;100.00;58022.63;5037318;28;20116;-59
2023/01/06 08:11:19;;;;;;;8.90;5.68;;;;;;;-144.31;100.00;58022.63;5026771;28;20035;-59
2023/01/06 08:13:44;;;;;;;10.95;6.80;;;;;;;-144.31;100.00;58022.63;5033482;28;20068;-59
2023/01/06 08:16:10;;;;;;;14.00;8.30;;;;;;;-144.31;100.00;58022.63;5028954;28;20333;-59
2023/01/06 08:18:36;;;;;;;9.93;6.72;;;;;;;-144.31;100.00;58022.63;5030020;28;20444;-59
2023/01/06 08:21:07;;;;;;;10.40;6.45;;;;;;;-144.31;100.00;58022.63;5048932;28;20379;-58
2023/01/06 08:23:34;;;;;;;8.73;5.68;;;;;;;-144.31;100.00;58022.63;5034337;28;20492;-58
2023/01/06 08:26:12;;;;;;;8.77;4.38;;;;;;;-144.31;100.00;58022.63;5039182;28;20098;-59
2023/01/06 08:28:38;;;;;;;5.53;3.70;;;;;;;-144.31;100.00;58022.63;5030788;28;20119;-58
2023/01/06 08:31:11;;;;;;;5.97;3.60;;;;;;;-144.31;100.00;58022.63;5029773;28;20064;-58
2023/01/06 08:33:36;;;;;;;8.35;3.63;;;;;;;-144.31;100.00;58022.63;5034352;28;20124;-58
2023/01/06 08:36:04;;;;;;;4.43;2.80;;;;;;;-144.31;100.00;58022.63;5028428;28;20115;-57
2023/01/06 08:38:32;;;;;;;5.70;2.55;;;;;;;-144.31;100.00;58022.63;5032778;28;20045;-58
2023/01/06 08:40:58;;;;;;;6.82;3.00;;;;;;;-144.31;100.00;58022.63;5034479;28;20120;-58
2023/01/06 08:43:25;;;;;;;4.93;2.60;;;;;;;-144.31;100.00;58022.63;5029694;28;20033;-58
2023/01/06 08:45:51;;;;;;;5.97;2.40;;;;;;;-144.31;100.00;58022.63;5031820;28;20091;-58
2023/01/06 08:48:17;;;;;;;4.80;2.75;;;;;;;-144.31;100.00;58022.63;5026489;28;20805;-58
2023/01/06 08:50:43;;;;;;;4.85;2.60;;;;;;;-144.31;100.00;58022.63;5027647;28;20041;-58
2023/01/06 08:53:11;;;;;;;3.92;2.28;;;;;;;-144.31;100.00;58022.63;5031091;28;20047;-57
2023/01/06 08:55:41;;;;;;;6.28;2.58;;;;;;;-144.31;100.00;58022.63;5028338;28;20223;-58
2023/01/06 08:58:07;;;;;;;3.88;2.20;;;;;;;-144.31;100.00;58022.63;5031877;28;20038;-57
2023/01/06 09:00:33;;;;;;;4.33;2.33;;;;;;;-144.31;100.00;58022.63;5027797;28;20028;-58
2023/01/06 09:02:59;;;;;;;4.30;2.30;;;;;;;-144.31;100.00;58022.63;5031144;28;20033;-58
2023/01/06 09:05:24;;;;;;;3.80;2.13;;;;;;;-144.31;100.00;58022.63;5033539;28;20029;-57
2023/01/06 09:07:53;;;;;;;4.47;2.72;;;;;;;-144.31;100.00;58022.63;5026846;28;20043;-57
2023/01/06 09:10:23;;;;;;;3.90;2.30;;;;;;;-144.31;100.00;58022.63;5033648;28;20040;-58
2023/01/06 09:12:48;;;;;;;4.07;2.63;;;;;;;-144.31;100.00;58022.63;5026323;28;20037;-58
2023/01/06 09:15:14;;;;;;;7.47;3.08;;;;;;;-144.31;100.00;58022.63;5025838;28;20039;-58
2023/01/06 09:17:40;;;;;;;5.57;3.20;;;;;;;-144.31;100.00;58022.63;5033918;28;20041;-58
2023/01/06 09:20:06;;;;;;;4.60;2.40;;;;;;;-144.31;100.00;58022.63;5029806;28;20553;-58
2023/01/06 09:22:31;;;;;;;4.60;2.95;;;;;;;-144.31;100.00;58022.63;5033072;28;20052;-58
2023/01/06 09:24:57;;;;;;;8.05;2.70;;;;;;;-144.31;100.00;58022.63;5025104;28;20037;-59
2023/01/06 09:27:23;;;;;;;5.05;2.70;;;;;;;-144.31;100.00;58022.63;5030764;28;20075;-57
2023/01/06 09:29:48;;;;;;;5.88;2.67;;;;;;;-144.31;100.00;58022.63;5040290;28;20036;-58
2023/01/06 09:32:16;;;;;;;4.03;2.38;;;;;;;-144.31;100.00;58022.63;5027667;28;20037;-59
2023/01/06 09:34:42;;;;;;;4.25;2.70;;;;;;;-144.31;100.00;58022.63;5032406;28;20044;-58
2023/01/06 09:37:07;;;;;;;6.88;2.70;;;;;;;-144.31;100.00;58022.63;5029298;28;20091;-58
2023/01/06 09:39:33;;;;;;;5.07;2.30;;;;;;;-144.31;100.00;58022.63;5029276;28;20670;-58
2023/01/06 09:42:27;;;;;;;4.68;2.30;;;;;;;-144.31;100.00;58022.63;5034135;28;20152;-58
2023/01/06 09:45:05;;;;;;;4.40;2.15;;;;;;;-144.31;100.00;58022.63;5027521;28;20067;-59
2023/01/06 09:47:43;;;;;;;4.72;2.33;;;;;;;-144.31;100.00;58022.63;5029172;28;20064;-58
2023/01/06 09:50:26;;;;;;;3.58;2.20;;;;;;;-144.31;100.00;58022.63;5032947;28;20047;-58
2023/01/06 09:52:57;;;;;;;4.15;2.10;;;;;;;-144.31;100.00;58022.63;5025671;28;20037;-58
2023/01/06 09:55:34;;;;;;;3.40;2.40;;;;;;;-144.31;100.00;58022.63;5026240;28;20525;-59
2023/01/06 09:58:07;;;;;;;4.07;2.20;;;;;;;-144.31;100.00;58022.63;5031460;28;20837;-59
2023/01/06 10:00:42;;;;;;;3.17;2.28;;;;;;;-144.31;100.00;58022.63;5023732;28;20038;-59
2023/01/06 10:03:17;;;;;;;3.38;2.17;;;;;;;-144.31;100.00;58022.63;5036660;28;20482;-59
2023/01/06 10:06:05;;;;;;;6.20;3.00;;;;;;;-144.31;100.00;58022.63;5033654;28;20033;-58
2023/01/06 10:09:00;;;;;;;3.80;2.25;;;;;;;-144.31;100.00;58022.63;5028630;28;20041;-59
2023/01/06 10:11:44;;;;;;;5.63;2.58;;;;;;;-144.31;100.00;58022.63;4979214;28;20046;-60
2023/01/06 10:14:37;;;;;;;4.85;2.55;;;;;;;-144.31;100.00;58022.63;5035635;28;20136;-60
2023/01/06 10:17:34;;;;;;;5.43;2.30;;;;;;;-144.31;100.00;58022.63;5029294;28;20160;-60
2023/01/06 10:20:46;;;;;;;4.88;2.00;;;;;;;-144.31;100.00;58022.63;5032101;28;20084;-59
2023/01/06 10:23:36;;;;;;;5.32;2.50;;;;;;;-144.31;100.00;58022.63;5034634;28;20052;-59
2023/01/06 10:26:12;;;;;;;4.70;2.60;;;;;;;-144.31;100.00;58022.63;5038567;28;20051;-59
2023/01/06 10:28:42;;;;;;;5.80;2.35;;;;;;;-144.31;100.00;58022.63;5031840;28;20387;-59
2023/01/06 10:31:14;;;;;;;5.32;2.78;;;;;;;-144.31;100.00;58022.63;5037108;28;20079;-60
2023/01/06 10:33:50;;;;;;;2.13;1.60;;;;;;;-144.31;100.00;58022.63;5031894;28;20072;-59
2023/01/06 10:36:19;;;;;;;2.05;1.52;;;;;;;-144.31;100.00;58022.63;5034181;28;20464;-59
2023/01/06 10:38:54;;;;;;;4.45;1.90;;;;;;;-144.31;100.00;58022.63;5038223;28;20473;-59
2023/01/06 10:41:38;;;;;;;2.78;1.60;;;;;;;-144.31;100.00;58022.63;5024959;28;20033;-60
2023/01/06 10:44:05;;;;;;;1.90;1.30;;;;;;;-144.31;100.00;58022.63;5035451;28;20134;-60
2023/01/06 10:46:34;;;;;;;1.35;1.23;;;;;;;-144.31;100.00;58022.63;5036470;28;20148;-59
2023/01/06 10:49:00;;;;;;;1.55;1.23;;;;;;;-144.31;100.00;58022.63;5032579;28;20689;-58
2023/01/06 10:51:47;;;;;;;1.30;1.20;;;;;;;-144.31;100.00;58022.63;5036068;28;20045;-59
2023/01/06 10:54:20;;;;;;;1.73;1.30;;;;;;;-144.31;100.00;58022.63;5037259;28;20465;-59
2023/01/06 10:56:52;;;;;;;2.95;1.20;;;;;;;-144.31;100.00;58022.63;5032401;28;20045;-59
2023/01/06 10:59:17;;;;;;;1.60;1.25;;;;;;;-144.31;100.00;58022.63;5037187;28;20048;-59
2023/01/06 11:01:49;;;;;;;2.42;1.33;;;;;;;-144.31;100.00;58022.63;5028601;28;20037;-59
2023/01/06 11:04:16;;;;;;;2.03;1.20;;;;;;;-144.31;100.00;58022.63;5027992;28;20112;-59
2023/01/06 11:06:49;;;;;;;2.13;1.30;;;;;;;-144.31;100.00;58022.63;5033637;28;20036;-59
2023/01/06 11:09:42;;;;;;;1.95;1.20;;;;;;;-144.31;100.00;58022.63;5025476;28;20112;-59
2023/01/06 11:12:25;;;;;;;3.67;1.73;;;;;;;-144.31;100.00;58022.63;5026476;28;20071;-59
2023/01/06 11:15:00;;;;;;;1.75;1.40;;;;;;;-144.31;100.00;58022.63;5034898;28;20045;-58
2023/01/06 11:17:28;;;;;;;3.00;1.27;;;;;;;-144.31;100.00;58022.63;5027067;28;20086;-58
2023/01/06 11:20:11;;;;;;;2.53;1.70;;;;;;;-144.31;100.00;58022.63;5029124;28;20116;-59
2023/01/06 11:22:39;;;;;;;2.55;1.38;;;;;;;-144.31;100.00;58022.63;5033942;28;20041;-59
2023/01/06 11:25:21;;;;;;;1.85;1.30;;;;;;;-144.31;100.00;58022.63;5028954;28;20045;-62
2023/01/06 11:28:09;;;;;;;2.42;1.55;;;;;;;-144.31;100.00;58022.63;5035318;28;20473;-59